Osage River (Missouri), Saint Thomas (06926510)

StateMissouriLatestUnknown (6440 cfs)
RiverOsage RiverRatingObservedEstimated
Updated2020-08-14 4:45 (49 minutes ago)Flood - The river is flooding. Obstacles can be treacherous or deadly. The river should be avoided at this stage for casual trips and definitely for the inexperienced. Trips should be attempted only with protective gear and equipment.Flood(none)(none)
Discharge6440 cfs (median: 4110 cfs)High - The river is high and potentially dangerous, especially for the young and / or inexperienced. Normal stream obstacles are sometimes difficult to navigate. Extended distances can be attempted, but canoe travel may not be advisable.High(none)(none)
Height5.03 feetGood - Conditions are ideal for a canoe or kayak. Boats typically will drag on fewer than one-quarter of riffles, if at all, and portages are unnecessary or rare. Normal float lengths can be attempted without a problem.Good(none)(none)
TrendRising (falling over 24 hours)Low - River is low but can still be floated. Some riffles are okay but most come with significant dragging and might need a portage. Float lengths should be reduced to accommodate low flow, dragging, and portages.Low(none)(none)
USGSExternal icon USGS Site (External icon Google Maps)Poor - River is too low to float comfortably. Most or all riffles will drag or must be portaged and some obstacles (such as slick shelf rock) cause undue problems. Avoid the river at this stage for casual paddling trips.Poor(none)(none)

Trending Data

Plot Image

Trips for Osage River (Missouri), Saint Thomas (06926510)

DateStartEndDistanceConditionDischargeHeightFishingDetails

A total of 0 rows are displayed.

Condition Descriptions

Fishing Conditions

Fish Species

Notes

Classic Trip List

The classic River Trips application is still available for use. It is updated with the new system using a data retrofit. It is no longer maintained. The original River Trips application is no longer updated (as of 1 Dec 2016) but can be checked for errors or for the condition of the data before it was converted to the new system.

Gauge Data Table

ObservationHeightDischargeMaximum
Discharge
Minimum
Discharge
Mean
Discharge
P05P10P20P25P50
(Median)
P75P80P90P95
2020-08-14 04:45 5.03 6440 41100 (2019) 554 (2000) 7980 564 714 1140 1280 4110 9760 13300 26700 39500
2020-08-14 03:45 4.88 6020 41100 (2019) 554 (2000) 7980 564 714 1140 1280 4110 9760 13300 26700 39500
2020-08-14 02:45 4.67 5420 41100 (2019) 554 (2000) 7980 564 714 1140 1280 4110 9760 13300 26700 39500
2020-08-14 01:45 4.41 4710 41100 (2019) 554 (2000) 7980 564 714 1140 1280 4110 9760 13300 26700 39500
2020-08-14 00:45 4.16 4040 41100 (2019) 554 (2000) 7980 564 714 1140 1280 4110 9760 13300 26700 39500
2020-08-13 23:45 4.00 3610 46100 (2019) 694 (2006) 9180 731 959 1060 1180 3120 12500 19500 32500 44700
2020-08-13 22:45 3.96 3510 46100 (2019) 694 (2006) 9180 731 959 1060 1180 3120 12500 19500 32500 44700
2020-08-13 21:45 4.01 3640 46100 (2019) 694 (2006) 9180 731 959 1060 1180 3120 12500 19500 32500 44700
2020-08-13 20:45 4.09 3850 46100 (2019) 694 (2006) 9180 731 959 1060 1180 3120 12500 19500 32500 44700
2020-08-13 19:45 4.20 4150 46100 (2019) 694 (2006) 9180 731 959 1060 1180 3120 12500 19500 32500 44700
2020-08-13 18:45 4.31 4430 46100 (2019) 694 (2006) 9180 731 959 1060 1180 3120 12500 19500 32500 44700
2020-08-13 17:45 4.43 4760 46100 (2019) 694 (2006) 9180 731 959 1060 1180 3120 12500 19500 32500 44700
2020-08-13 16:45 4.56 5130 46100 (2019) 694 (2006) 9180 731 959 1060 1180 3120 12500 19500 32500 44700
2020-08-13 15:45 4.69 5480 46100 (2019) 694 (2006) 9180 731 959 1060 1180 3120 12500 19500 32500 44700
2020-08-13 14:45 4.83 5880 46100 (2019) 694 (2006) 9180 731 959 1060 1180 3120 12500 19500 32500 44700
2020-08-13 13:45 4.97 6270 46100 (2019) 694 (2006) 9180 731 959 1060 1180 3120 12500 19500 32500 44700
2020-08-13 12:45 5.10 6640 46100 (2019) 694 (2006) 9180 731 959 1060 1180 3120 12500 19500 32500 44700
2020-08-13 11:45 5.24 7030 46100 (2019) 694 (2006) 9180 731 959 1060 1180 3120 12500 19500 32500 44700
2020-08-13 10:45 5.36 7360 46100 (2019) 694 (2006) 9180 731 959 1060 1180 3120 12500 19500 32500 44700
2020-08-13 09:45 5.46 7640 46100 (2019) 694 (2006) 9180 731 959 1060 1180 3120 12500 19500 32500 44700
2020-08-13 08:45 5.53 7850 46100 (2019) 694 (2006) 9180 731 959 1060 1180 3120 12500 19500 32500 44700
2020-08-13 07:45 5.58 7990 46100 (2019) 694 (2006) 9180 731 959 1060 1180 3120 12500 19500 32500 44700
2020-08-13 06:45 5.58 7990 46100 (2019) 694 (2006) 9180 731 959 1060 1180 3120 12500 19500 32500 44700
2020-08-13 05:45 5.51 7790 46100 (2019) 694 (2006) 9180 731 959 1060 1180 3120 12500 19500 32500 44700
2020-08-13 04:45 5.38 7420 46100 (2019) 694 (2006) 9180 731 959 1060 1180 3120 12500 19500 32500 44700
2020-08-13 03:45 5.16 6810 46100 (2019) 694 (2006) 9180 731 959 1060 1180 3120 12500 19500 32500 44700
2020-08-13 02:45 4.83 5880 46100 (2019) 694 (2006) 9180 731 959 1060 1180 3120 12500 19500 32500 44700
2020-08-13 01:45 4.44 4790 46100 (2019) 694 (2006) 9180 731 959 1060 1180 3120 12500 19500 32500 44700
2020-08-13 00:45 4.09 3850 46100 (2019) 694 (2006) 9180 731 959 1060 1180 3120 12500 19500 32500 44700
2020-08-12 23:45 3.90 3350 50100 (2019) 628 (2006) 9390 680 1040 1250 1440 4270 14500 19600 28300 47100
2020-08-12 22:45 3.88 3290 50100 (2019) 628 (2006) 9390 680 1040 1250 1440 4270 14500 19600 28300 47100
2020-08-12 21:45 3.94 3460 50100 (2019) 628 (2006) 9390 680 1040 1250 1440 4270 14500 19600 28300 47100
2020-08-12 20:45 4.02 3670 50100 (2019) 628 (2006) 9390 680 1040 1250 1440 4270 14500 19600 28300 47100
2020-08-12 19:45 4.13 3960 50100 (2019) 628 (2006) 9390 680 1040 1250 1440 4270 14500 19600 28300 47100
2020-08-12 18:45 4.24 4250 50100 (2019) 628 (2006) 9390 680 1040 1250 1440 4270 14500 19600 28300 47100
2020-08-12 17:45 4.37 4600 50100 (2019) 628 (2006) 9390 680 1040 1250 1440 4270 14500 19600 28300 47100
2020-08-12 16:45 4.50 4960 50100 (2019) 628 (2006) 9390 680 1040 1250 1440 4270 14500 19600 28300 47100
2020-08-12 15:45 4.64 5340 50100 (2019) 628 (2006) 9390 680 1040 1250 1440 4270 14500 19600 28300 47100
2020-08-12 14:45 4.79 5770 50100 (2019) 628 (2006) 9390 680 1040 1250 1440 4270 14500 19600 28300 47100
2020-08-12 13:45 4.95 6210 50100 (2019) 628 (2006) 9390 680 1040 1250 1440 4270 14500 19600 28300 47100
2020-08-12 12:45 5.11 6670 50100 (2019) 628 (2006) 9390 680 1040 1250 1440 4270 14500 19600 28300 47100
2020-08-12 11:45 5.28 7140 50100 (2019) 628 (2006) 9390 680 1040 1250 1440 4270 14500 19600 28300 47100
2020-08-12 10:45 5.45 7610 50100 (2019) 628 (2006) 9390 680 1040 1250 1440 4270 14500 19600 28300 47100
2020-08-12 09:45 5.60 8050 50100 (2019) 628 (2006) 9390 680 1040 1250 1440 4270 14500 19600 28300 47100
2020-08-12 08:45 5.76 8530 50100 (2019) 628 (2006) 9390 680 1040 1250 1440 4270 14500 19600 28300 47100
2020-08-12 07:45 5.89 8900 50100 (2019) 628 (2006) 9390 680 1040 1250 1440 4270 14500 19600 28300 47100
2020-08-12 06:45 6.02 9280 50100 (2019) 628 (2006) 9390 680 1040 1250 1440 4270 14500 19600 28300 47100
2020-08-12 05:45 6.10 9510 50100 (2019) 628 (2006) 9390 680 1040 1250 1440 4270 14500 19600 28300 47100
2020-08-12 04:45 6.17 9710 50100 (2019) 628 (2006) 9390 680 1040 1250 1440 4270 14500 19600 28300 47100
2020-08-12 03:45 6.18 9740 50100 (2019) 628 (2006) 9390 680 1040 1250 1440 4270 14500 19600 28300 47100
2020-08-12 02:45 6.16 9690 50100 (2019) 628 (2006) 9390 680 1040 1250 1440 4270 14500 19600 28300 47100
2020-08-12 01:45 6.07 9430 50100 (2019) 628 (2006) 9390 680 1040 1250 1440 4270 14500 19600 28300 47100
2020-08-12 00:45 5.95 50100 (2019) 628 (2006) 9390 680 1040 1250 1440 4270 14500 19600 28300 47100
2020-08-11 23:45 5.80 8650 51200 (2019) 702 (2006) 9940 727 940 1240 1310 5290 14100 17900 29200 48100
2020-08-11 22:45 5.68 8290 51200 (2019) 702 (2006) 9940 727 940 1240 1310 5290 14100 17900 29200 48100
2020-08-11 21:45 5.67 8260 51200 (2019) 702 (2006) 9940 727 940 1240 1310 5290 14100 17900 29200 48100
2020-08-11 20:45 5.77 8560 51200 (2019) 702 (2006) 9940 727 940 1240 1310 5290 14100 17900 29200 48100
2020-08-11 19:45 5.96 9110 51200 (2019) 702 (2006) 9940 727 940 1240 1310 5290 14100 17900 29200 48100
2020-08-11 18:45 6.21 9830 51200 (2019) 702 (2006) 9940 727 940 1240 1310 5290 14100 17900 29200 48100
2020-08-11 17:45 6.51 10700 51200 (2019) 702 (2006) 9940 727 940 1240 1310 5290 14100 17900 29200 48100
2020-08-11 16:45 6.82 11700 51200 (2019) 702 (2006) 9940 727 940 1240 1310 5290 14100 17900 29200 48100
2020-08-11 15:45 7.14 12700 51200 (2019) 702 (2006) 9940 727 940 1240 1310 5290 14100 17900 29200 48100
2020-08-11 14:45 7.45 13700 51200 (2019) 702 (2006) 9940 727 940 1240 1310 5290 14100 17900 29200 48100
2020-08-11 13:45 7.80 15000 51200 (2019) 702 (2006) 9940 727 940 1240 1310 5290 14100 17900 29200 48100
2020-08-11 12:45 8.15 16200 51200 (2019) 702 (2006) 9940 727 940 1240 1310 5290 14100 17900 29200 48100
2020-08-11 11:45 8.48 17500 51200 (2019) 702 (2006) 9940 727 940 1240 1310 5290 14100 17900 29200 48100
2020-08-11 10:45 8.82 18800 51200 (2019) 702 (2006) 9940 727 940 1240 1310 5290 14100 17900 29200 48100
2020-08-11 09:45 9.17 20300 51200 (2019) 702 (2006) 9940 727 940 1240 1310 5290 14100 17900 29200 48100
2020-08-11 08:45 9.51 21700 51200 (2019) 702 (2006) 9940 727 940 1240 1310 5290 14100 17900 29200 48100
2020-08-11 07:45 9.80 22800 51200 (2019) 702 (2006) 9940 727 940 1240 1310 5290 14100 17900 29200 48100
2020-08-11 06:45 10.08 23800 51200 (2019) 702 (2006) 9940 727 940 1240 1310 5290 14100 17900 29200 48100
2020-08-11 05:45 10.29 24500 51200 (2019) 702 (2006) 9940 727 940 1240 1310 5290 14100 17900 29200 48100
2020-08-11 04:45 10.44 25000 51200 (2019) 702 (2006) 9940 727 940 1240 1310 5290 14100 17900 29200 48100
2020-08-11 03:45 10.41 25000 51200 (2019) 702 (2006) 9940 727 940 1240 1310 5290 14100 17900 29200 48100
2020-08-11 02:45 10.34 24700 51200 (2019) 702 (2006) 9940 727 940 1240 1310 5290 14100 17900 29200 48100
2020-08-11 01:45 10.10 23900 51200 (2019) 702 (2006) 9940 727 940 1240 1310 5290 14100 17900 29200 48100
2020-08-11 00:45 9.69 22400 51200 (2019) 702 (2006) 9940 727 940 1240 1310 5290 14100 17900 29200 48100

A total of 77 rows are displayed for years 1997 through 2019.